Time;durP1;ratioP1;P1;durP2;ratioP2;P2;SDS_P1;SDS_P2;PMS_P1;PMS_P2;Temp;Humidity;BMP_temperature;BMP_pressure;BME280_temperature;BME280_humidity;BME280_pressure;Samples;Min_cycle;Max_cycle;Signal;HPM_P1;HPM_P2
2022/07/06 00:01:26;;;;;;;0.10;0.10;;;;;;;;;;5070678;28;20020;-84
2022/07/06 00:03:52;;;;;;;0.10;0.10;;;;;;;;;;5069652;28;20033;-81
2022/07/06 00:06:18;;;;;;;0.10;0.10;;;;;;;;;;5070979;28;20078;-81
2022/07/06 00:08:44;;;;;;;0.10;0.10;;;;;;;;;;5070585;28;20033;-85
2022/07/06 00:11:11;;;;;;;0.10;0.10;;;;;;;;;;5070772;28;20024;-83
2022/07/06 00:13:37;;;;;;;0.05;0.05;;;;;;;;;;5070618;28;20033;-83
2022/07/06 00:16:03;;;;;;;0.03;0.03;;;;;;;;;;5070988;28;20027;-83
2022/07/06 00:18:29;;;;;;;0.10;0.10;;;;;;;;;;5069278;28;20032;-82
2022/07/06 00:20:56;;;;;;;0.10;0.10;;;;;;;;;;5070784;28;20529;-83
2022/07/06 00:23:22;;;;;;;0.10;0.10;;;;;;;;;;5072464;28;20040;-82
2022/07/06 00:25:48;;;;;;;0.10;0.10;;;;;;;;;;5075003;28;20491;-84
2022/07/06 00:28:15;;;;;;;0.10;0.10;;;;;;;;;;5074317;28;20542;-81
2022/07/06 00:30:41;;;;;;;0.10;0.10;;;;;;;;;;5073983;28;20029;-80
2022/07/06 00:33:07;;;;;;;0.10;0.10;;;;;;;;;;5073917;28;20155;-81
2022/07/06 00:35:33;;;;;;;0.10;0.10;;;;;;;;;;5073889;28;20093;-81
2022/07/06 00:37:59;;;;;;;0.10;0.10;;;;;;;;;;5073882;28;20074;-81
2022/07/06 00:40:25;;;;;;;0.10;0.10;;;;;;;;;;5073707;28;20024;-80
2022/07/06 00:42:51;;;;;;;0.10;0.10;;;;;;;;;;5074307;28;20024;-80
2022/07/06 00:45:18;;;;;;;0.10;0.10;;;;;;;;;;5074131;28;20443;-80
2022/07/06 00:47:45;;;;;;;0.10;0.10;;;;;;;;;;5073535;28;20066;-82
2022/07/06 00:50:15;;;;;;;0.10;0.10;;;;;;;;;;5073664;28;20044;-81
2022/07/06 00:52:42;;;;;;;0.10;0.10;;;;;;;;;;5073149;28;20120;-84
2022/07/06 00:55:08;;;;;;;0.10;0.10;;;;;;;;;;5074037;28;20031;-81
2022/07/06 00:57:34;;;;;;;0.03;0.03;;;;;;;;;;5073668;28;20025;-83
2022/07/06 01:00:01;;;;;;;0.00;0.00;;;;;;;;;;5073603;28;20032;-83
2022/07/06 01:02:30;;;;;;;0.10;0.10;;;;;;;;;;5073351;28;20020;-81
2022/07/06 01:04:56;;;;;;;0.10;0.10;;;;;;;;;;5073713;28;20479;-83
2022/07/06 01:07:22;;;;;;;0.10;0.10;;;;;;;;;;5071286;28;20067;-81
2022/07/06 01:09:48;;;;;;;0.10;0.10;;;;;;;;;;5073685;28;20021;-81
2022/07/06 01:12:14;;;;;;;0.10;0.10;;;;;;;;;;5073745;28;20036;-82
2022/07/06 01:14:40;;;;;;;0.10;0.10;;;;;;;;;;5071708;28;20033;-81
2022/07/06 01:17:07;;;;;;;0.10;0.10;;;;;;;;;;5073630;28;20029;-85
2022/07/06 01:19:34;;;;;;;0.10;0.10;;;;;;;;;;5073486;28;20031;-83
2022/07/06 01:22:00;;;;;;;0.10;0.10;;;;;;;;;;5073557;28;20056;-85
2022/07/06 01:24:26;;;;;;;0.10;0.10;;;;;;;;;;5073284;28;20484;-84
2022/07/06 01:26:52;;;;;;;0.10;0.10;;;;;;;;;;5073584;28;20024;-84
2022/07/06 01:29:18;;;;;;;0.10;0.10;;;;;;;;;;5073590;28;20069;-82
2022/07/06 01:31:48;;;;;;;0.10;0.10;;;;;;;;;;5072769;28;20047;-81
2022/07/06 01:34:15;;;;;;;0.10;0.10;;;;;;;;;;5072648;28;20036;-85
2022/07/06 01:36:41;;;;;;;0.10;0.10;;;;;;;;;;5072988;28;20024;-87
2022/07/06 01:39:08;;;;;;;0.10;0.10;;;;;;;;;;5073383;28;20040;-86
2022/07/06 01:41:34;;;;;;;0.10;0.10;;;;;;;;;;5072802;28;20027;-84
2022/07/06 01:44:00;;;;;;;0.13;0.13;;;;;;;;;;5073122;28;20029;-85
2022/07/06 01:46:27;;;;;;;0.10;0.10;;;;;;;;;;5072618;28;20164;-85
2022/07/06 01:48:53;;;;;;;0.10;0.10;;;;;;;;;;5072829;28;20055;-80
2022/07/06 01:51:19;;;;;;;0.10;0.10;;;;;;;;;;5071899;28;20488;-82
2022/07/06 01:53:45;;;;;;;0.10;0.10;;;;;;;;;;5072490;28;20036;-84
2022/07/06 01:56:12;;;;;;;0.10;0.10;;;;;;;;;;5072791;28;20098;-81
2022/07/06 01:58:38;;;;;;;0.10;0.10;;;;;;;;;;5072292;28;20099;-81
2022/07/06 02:01:11;;;;;;;0.10;0.10;;;;;;;;;;5071138;28;20031;-81
2022/07/06 02:03:37;;;;;;;0.10;0.10;;;;;;;;;;5031325;28;20032;-80
2022/07/06 02:06:04;;;;;;;0.10;0.10;;;;;;;;;;5054907;28;20032;-80
2022/07/06 02:08:30;;;;;;;0.10;0.10;;;;;;;;;;5072042;28;20473;-80
2022/07/06 02:10:56;;;;;;;0.10;0.10;;;;;;;;;;5072252;28;20499;-80
2022/07/06 02:13:22;;;;;;;0.10;0.10;;;;;;;;;;5071890;28;20036;-82
2022/07/06 02:15:48;;;;;;;0.10;0.10;;;;;;;;;;5071200;28;20024;-83
2022/07/06 02:18:14;;;;;;;0.10;0.10;;;;;;;;;;5070806;28;20050;-81
2022/07/06 02:20:40;;;;;;;0.10;0.10;;;;;;;;;;5070286;28;20039;-81
2022/07/06 02:23:06;;;;;;;0.10;0.10;;;;;;;;;;5070734;28;20090;-81
2022/07/06 02:25:32;;;;;;;0.10;0.10;;;;;;;;;;5070447;28;20399;-81
2022/07/06 02:27:58;;;;;;;0.10;0.10;;;;;;;;;;5072008;28;20020;-80
2022/07/06 02:30:24;;;;;;;0.10;0.10;;;;;;;;;;5071761;28;20108;-81
2022/07/06 02:32:50;;;;;;;0.10;0.10;;;;;;;;;;5072093;28;20108;-81
2022/07/06 02:35:17;;;;;;;0.10;0.10;;;;;;;;;;5071662;28;20028;-81
2022/07/06 02:37:43;;;;;;;0.10;0.10;;;;;;;;;;5070212;28;20032;-82
2022/07/06 02:40:09;;;;;;;0.10;0.10;;;;;;;;;;5071832;28;20035;-80
2022/07/06 02:42:35;;;;;;;0.10;0.10;;;;;;;;;;5071550;28;20023;-81
2022/07/06 02:45:01;;;;;;;0.10;0.10;;;;;;;;;;5070310;28;20404;-81
2022/07/06 02:47:28;;;;;;;0.10;0.10;;;;;;;;;;5070584;28;20024;-82
2022/07/06 02:49:54;;;;;;;0.10;0.10;;;;;;;;;;5071438;28;20037;-82
2022/07/06 02:52:20;;;;;;;0.10;0.10;;;;;;;;;;5072074;28;20077;-83
2022/07/06 02:54:46;;;;;;;0.10;0.10;;;;;;;;;;5071179;28;20507;-83
2022/07/06 02:57:12;;;;;;;0.10;0.10;;;;;;;;;;5071069;28;20028;-83
2022/07/06 02:59:38;;;;;;;0.10;0.10;;;;;;;;;;5071415;28;20028;-82
2022/07/06 03:02:04;;;;;;;0.10;0.10;;;;;;;;;;5070137;28;20024;-80
2022/07/06 03:04:30;;;;;;;0.10;0.10;;;;;;;;;;5071194;28;20099;-80
2022/07/06 03:06:56;;;;;;;0.10;0.10;;;;;;;;;;5071550;28;20016;-83
2022/07/06 03:09:22;;;;;;;0.10;0.10;;;;;;;;;;5071020;28;20035;-82
2022/07/06 03:11:48;;;;;;;0.10;0.10;;;;;;;;;;5070898;28;20074;-82
2022/07/06 03:14:15;;;;;;;0.10;0.10;;;;;;;;;;5071214;28;20085;-81
2022/07/06 03:16:41;;;;;;;0.10;0.10;;;;;;;;;;5071116;28;20027;-80
2022/07/06 03:19:07;;;;;;;0.10;0.10;;;;;;;;;;5071433;28;20035;-81
2022/07/06 03:21:33;;;;;;;0.10;0.10;;;;;;;;;;5071019;28;20103;-80
2022/07/06 03:23:59;;;;;;;0.10;0.10;;;;;;;;;;5071199;28;20028;-81
2022/07/06 03:26:25;;;;;;;0.10;0.10;;;;;;;;;;5069610;28;20086;-82
2022/07/06 03:28:51;;;;;;;0.10;0.10;;;;;;;;;;5071692;28;20042;-82
2022/07/06 03:31:17;;;;;;;0.10;0.10;;;;;;;;;;5071364;28;20028;-82
2022/07/06 03:33:43;;;;;;;0.10;0.10;;;;;;;;;;5070546;28;20044;-80
2022/07/06 03:36:09;;;;;;;0.10;0.10;;;;;;;;;;5070887;28;20032;-81
2022/07/06 03:38:35;;;;;;;0.10;0.10;;;;;;;;;;5069282;28;20025;-81
2022/07/06 03:41:01;;;;;;;0.10;0.10;;;;;;;;;;5069670;28;20028;-81
2022/07/06 03:43:27;;;;;;;0.10;0.10;;;;;;;;;;5070707;28;20075;-82
2022/07/06 03:45:53;;;;;;;0.10;0.10;;;;;;;;;;5071050;28;20029;-82
2022/07/06 03:48:19;;;;;;;0.10;0.10;;;;;;;;;;5069652;28;20467;-81
2022/07/06 03:50:45;;;;;;;0.10;0.10;;;;;;;;;;5069333;28;20119;-85
2022/07/06 03:53:11;;;;;;;0.10;0.10;;;;;;;;;;5070986;28;20469;-81
2022/07/06 03:55:37;;;;;;;0.10;0.10;;;;;;;;;;5070658;28;20052;-81
2022/07/06 03:58:03;;;;;;;0.10;0.10;;;;;;;;;;5072168;28;20020;-82
2022/07/06 04:00:30;;;;;;;0.10;0.10;;;;;;;;;;5074641;28;20027;-82
2022/07/06 04:02:56;;;;;;;0.10;0.10;;;;;;;;;;5074421;28;20039;-82
2022/07/06 04:05:22;;;;;;;0.10;0.10;;;;;;;;;;5075084;28;20027;-84
2022/07/06 04:07:49;;;;;;;0.10;0.10;;;;;;;;;;5075130;28;20387;-83
2022/07/06 04:10:15;;;;;;;0.10;0.10;;;;;;;;;;5074720;28;20426;-88
2022/07/06 04:12:42;;;;;;;0.10;0.10;;;;;;;;;;5074610;28;20108;-85
2022/07/06 04:15:09;;;;;;;0.10;0.10;;;;;;;;;;5074503;28;20075;-83
2022/07/06 04:17:53;;;;;;;0.10;0.10;;;;;;;;;;5074110;28;20353;-84
2022/07/06 04:20:19;;;;;;;0.10;0.10;;;;;;;;;;5073448;28;20044;-83
2022/07/06 04:22:45;;;;;;;0.10;0.10;;;;;;;;;;5072799;28;20029;-83
2022/07/06 04:25:11;;;;;;;0.10;0.10;;;;;;;;;;5074061;28;20039;-83
2022/07/06 04:27:37;;;;;;;0.10;0.10;;;;;;;;;;5072804;28;20025;-81
2022/07/06 04:30:04;;;;;;;0.10;0.10;;;;;;;;;;5074220;28;20028;-81
2022/07/06 04:32:31;;;;;;;0.10;0.10;;;;;;;;;;5073483;28;20035;-82
2022/07/06 04:34:57;;;;;;;0.10;0.10;;;;;;;;;;5074212;28;20032;-84
2022/07/06 04:37:23;;;;;;;0.10;0.10;;;;;;;;;;5074246;28;20078;-84
2022/07/06 04:39:49;;;;;;;0.10;0.10;;;;;;;;;;5073510;28;20028;-84
2022/07/06 04:42:15;;;;;;;0.10;0.10;;;;;;;;;;5073899;28;20025;-81
2022/07/06 04:44:41;;;;;;;0.10;0.10;;;;;;;;;;5073667;28;20032;-81
2022/07/06 04:47:07;;;;;;;0.10;0.10;;;;;;;;;;5073793;28;20024;-84
2022/07/06 04:49:33;;;;;;;0.10;0.10;;;;;;;;;;5073705;28;20077;-85
2022/07/06 04:51:59;;;;;;;0.10;0.10;;;;;;;;;;5074086;28;20043;-81
2022/07/06 04:54:25;;;;;;;0.10;0.10;;;;;;;;;;5072417;28;20551;-80
2022/07/06 04:56:51;;;;;;;0.10;0.10;;;;;;;;;;5074091;28;20029;-80
2022/07/06 04:59:17;;;;;;;0.10;0.10;;;;;;;;;;5074113;28;20024;-83
2022/07/06 05:01:43;;;;;;;0.10;0.10;;;;;;;;;;5059094;28;20029;-83
2022/07/06 05:04:09;;;;;;;0.10;0.10;;;;;;;;;;5052343;28;20044;-84
2022/07/06 05:06:35;;;;;;;0.10;0.10;;;;;;;;;;5052332;28;20385;-80
2022/07/06 05:09:02;;;;;;;0.15;0.15;;;;;;;;;;5052273;28;20032;-88
2022/07/06 05:11:28;;;;;;;0.10;0.10;;;;;;;;;;5055151;28;20513;-83
2022/07/06 05:13:54;;;;;;;0.10;0.10;;;;;;;;;;5053498;28;20064;-82
2022/07/06 05:16:21;;;;;;;0.10;0.10;;;;;;;;;;5052505;28;20040;-80
2022/07/06 05:18:47;;;;;;;0.10;0.10;;;;;;;;;;5062202;28;20024;-79
2022/07/06 05:21:13;;;;;;;0.20;0.20;;;;;;;;;;5073486;28;20024;-83
2022/07/06 05:23:39;;;;;;;0.10;0.10;;;;;;;;;;5071333;28;20031;-81
2022/07/06 05:26:05;;;;;;;0.10;0.10;;;;;;;;;;5073536;28;20028;-81
2022/07/06 05:28:31;;;;;;;0.10;0.10;;;;;;;;;;5072093;28;20032;-86
2022/07/06 05:30:57;;;;;;;0.10;0.10;;;;;;;;;;5071961;28;20082;-83
2022/07/06 05:33:23;;;;;;;0.10;0.10;;;;;;;;;;5060441;28;20028;-84
2022/07/06 05:35:49;;;;;;;0.10;0.10;;;;;;;;;;5052147;28;20067;-87
2022/07/06 05:38:16;;;;;;;0.10;0.10;;;;;;;;;;5052195;28;20021;-83
2022/07/06 05:40:42;;;;;;;0.10;0.10;;;;;;;;;;5068069;28;20433;-87
2022/07/06 05:43:08;;;;;;;0.10;0.10;;;;;;;;;;5072244;28;20070;-86
2022/07/06 05:45:34;;;;;;;0.10;0.10;;;;;;;;;;5058406;28;20477;-84
2022/07/06 05:50:45;;;;;;;0.10;0.10;;;;;;;;;;5064747;28;20400;-89
2022/07/06 05:53:11;;;;;;;0.10;0.10;;;;;;;;;;5073801;28;20503;-82
2022/07/06 05:55:37;;;;;;;0.10;0.10;;;;;;;;;;5071720;28;20373;-81
2022/07/06 05:58:03;;;;;;;0.10;0.10;;;;;;;;;;5073191;28;20028;-82
2022/07/06 06:00:29;;;;;;;0.10;0.10;;;;;;;;;;5072328;28;20077;-86
2022/07/06 06:02:56;;;;;;;0.10;0.10;;;;;;;;;;5071588;28;20024;-83
2022/07/06 06:05:22;;;;;;;0.10;0.10;;;;;;;;;;5066221;28;20025;-85
2022/07/06 06:07:50;;;;;;;0.10;0.10;;;;;;;;;;5051479;28;20035;-82
2022/07/06 06:10:17;;;;;;;0.10;0.10;;;;;;;;;;5060359;28;20029;-82
2022/07/06 06:12:44;;;;;;;0.10;0.10;;;;;;;;;;5070826;28;20054;-85
2022/07/06 06:15:10;;;;;;;0.10;0.10;;;;;;;;;;5070652;28;20131;-84
2022/07/06 06:17:37;;;;;;;0.10;0.10;;;;;;;;;;5070867;28;20020;-84
2022/07/06 06:20:04;;;;;;;0.10;0.10;;;;;;;;;;5071164;28;20020;-83
2022/07/06 06:22:30;;;;;;;0.15;0.15;;;;;;;;;;5071774;28;20365;-86
2022/07/06 06:24:56;;;;;;;0.10;0.10;;;;;;;;;;5061977;28;20029;-84
2022/07/06 06:27:22;;;;;;;0.10;0.10;;;;;;;;;;5050852;28;20029;-86
2022/07/06 06:29:48;;;;;;;0.00;0.00;;;;;;;;;;5061422;28;20055;-85
2022/07/06 06:32:14;;;;;;;0.10;0.10;;;;;;;;;;5071379;28;20029;-83
2022/07/06 06:34:40;;;;;;;0.10;0.10;;;;;;;;;;5071453;28;20044;-85
2022/07/06 06:37:06;;;;;;;0.10;0.10;;;;;;;;;;5063267;28;20107;-85
2022/07/06 06:39:33;;;;;;;0.10;0.10;;;;;;;;;;5051179;28;20032;-83
2022/07/06 06:41:59;;;;;;;0.10;0.10;;;;;;;;;;5050200;28;20017;-84
2022/07/06 06:44:25;;;;;;;0.10;0.10;;;;;;;;;;5049885;28;20060;-82
2022/07/06 06:46:55;;;;;;;0.10;0.10;;;;;;;;;;5062694;28;20021;-88
2022/07/06 06:49:21;;;;;;;0.10;0.10;;;;;;;;;;5052368;28;20028;-85
2022/07/06 06:51:47;;;;;;;0.10;0.10;;;;;;;;;;5052355;28;20075;-85
2022/07/06 06:54:13;;;;;;;0.10;0.10;;;;;;;;;;5049919;28;20041;-83
2022/07/06 06:56:39;;;;;;;0.10;0.10;;;;;;;;;;5055777;28;20025;-82
2022/07/06 06:59:05;;;;;;;0.10;0.10;;;;;;;;;;5069989;28;20035;-85
2022/07/06 07:01:32;;;;;;;0.10;0.10;;;;;;;;;;5070188;28;20415;-82
2022/07/06 07:03:58;;;;;;;0.17;0.17;;;;;;;;;;5070158;28;20078;-83
2022/07/06 07:06:24;;;;;;;0.10;0.10;;;;;;;;;;5054706;28;20464;-81
2022/07/06 07:08:50;;;;;;;0.10;0.10;;;;;;;;;;5062439;28;20051;-81
2022/07/06 07:11:16;;;;;;;0.10;0.10;;;;;;;;;;5050815;28;20070;-80
2022/07/06 07:13:42;;;;;;;0.10;0.10;;;;;;;;;;5049760;28;20124;-80
2022/07/06 07:16:08;;;;;;;0.10;0.10;;;;;;;;;;5052021;28;20025;-79
2022/07/06 07:18:34;;;;;;;0.10;0.10;;;;;;;;;;5067620;28;20149;-81
2022/07/06 07:21:00;;;;;;;0.10;0.10;;;;;;;;;;5049584;28;20123;-80
2022/07/06 07:23:27;;;;;;;0.10;0.10;;;;;;;;;;5050805;28;20021;-81
2022/07/06 07:25:53;;;;;;;0.10;0.10;;;;;;;;;;5050654;28;20033;-80
2022/07/06 07:28:19;;;;;;;0.10;0.10;;;;;;;;;;5069433;28;20135;-80
2022/07/06 07:30:45;;;;;;;0.10;0.10;;;;;;;;;;5070759;28;20410;-81
2022/07/06 07:33:11;;;;;;;0.10;0.10;;;;;;;;;;5072295;28;20036;-80
2022/07/06 07:35:37;;;;;;;0.10;0.10;;;;;;;;;;5073312;28;20021;-81
2022/07/06 07:38:03;;;;;;;0.20;0.20;;;;;;;;;;5074213;28;20025;-80
2022/07/06 07:40:29;;;;;;;0.20;0.20;;;;;;;;;;5074637;28;20074;-80
2022/07/06 07:42:55;;;;;;;0.10;0.10;;;;;;;;;;5074866;28;20104;-80
2022/07/06 07:45:21;;;;;;;0.10;0.10;;;;;;;;;;5070161;28;20078;-80
2022/07/06 07:47:47;;;;;;;0.10;0.10;;;;;;;;;;5068192;28;20035;-80
2022/07/06 07:50:14;;;;;;;0.10;0.10;;;;;;;;;;5073260;28;20028;-81
2022/07/06 07:52:40;;;;;;;0.10;0.10;;;;;;;;;;5074573;28;20438;-80
2022/07/06 07:55:07;;;;;;;0.10;0.10;;;;;;;;;;5072841;28;20403;-81
2022/07/06 07:57:33;;;;;;;0.15;0.15;;;;;;;;;;5073942;28;20103;-80
2022/07/06 07:59:59;;;;;;;0.10;0.10;;;;;;;;;;5073333;28;20031;-80
2022/07/06 08:02:25;;;;;;;0.10;0.10;;;;;;;;;;5074191;28;20100;-80
2022/07/06 08:04:51;;;;;;;0.13;0.13;;;;;;;;;;5074731;28;20028;-79
2022/07/06 08:07:17;;;;;;;0.20;0.20;;;;;;;;;;5059350;28;20155;-79
2022/07/06 08:09:43;;;;;;;0.10;0.10;;;;;;;;;;5053932;28;20033;-82
2022/07/06 08:12:09;;;;;;;0.10;0.10;;;;;;;;;;5053147;28;20540;-81
2022/07/06 08:14:37;;;;;;;0.10;0.10;;;;;;;;;;5052695;28;20040;-79
2022/07/06 08:17:03;;;;;;;0.20;0.20;;;;;;;;;;5064558;28;20539;-80
2022/07/06 08:19:30;;;;;;;0.10;0.10;;;;;;;;;;5073920;28;20048;-78
2022/07/06 08:21:56;;;;;;;0.10;0.10;;;;;;;;;;5074078;28;20119;-79
2022/07/06 08:24:22;;;;;;;0.10;0.10;;;;;;;;;;5074026;28;20539;-80
2022/07/06 08:26:48;;;;;;;0.10;0.10;;;;;;;;;;5073928;28;20112;-80
2022/07/06 08:29:14;;;;;;;0.20;0.20;;;;;;;;;;5072695;28;20024;-80
2022/07/06 08:31:40;;;;;;;0.10;0.10;;;;;;;;;;5073674;28;20119;-79
2022/07/06 08:34:06;;;;;;;0.10;0.10;;;;;;;;;;5073789;28;20531;-80
2022/07/06 08:36:32;;;;;;;0.10;0.10;;;;;;;;;;5072112;28;20151;-80
2022/07/06 08:38:58;;;;;;;0.10;0.10;;;;;;;;;;5072737;28;20024;-80
2022/07/06 08:41:26;;;;;;;0.10;0.10;;;;;;;;;;5073911;28;20453;-80
2022/07/06 08:43:52;;;;;;;0.10;0.10;;;;;;;;;;5074212;28;20058;-78
2022/07/06 08:46:19;;;;;;;0.10;0.10;;;;;;;;;;5074188;28;20028;-83
2022/07/06 08:48:45;;;;;;;0.10;0.10;;;;;;;;;;5071987;28;20029;-81
2022/07/06 08:51:13;;;;;;;0.10;0.10;;;;;;;;;;5073697;28;20067;-80
2022/07/06 08:53:40;;;;;;;0.10;0.10;;;;;;;;;;5073383;28;20468;-81
2022/07/06 08:56:06;;;;;;;0.10;0.10;;;;;;;;;;5072178;28;20542;-82
2022/07/06 08:58:33;;;;;;;0.10;0.10;;;;;;;;;;5072262;28;20104;-83
2022/07/06 09:00:59;;;;;;;0.10;0.10;;;;;;;;;;5073826;28;20032;-82
2022/07/06 09:03:26;;;;;;;0.10;0.10;;;;;;;;;;5072873;28;20099;-83
2022/07/06 09:05:53;;;;;;;0.10;0.10;;;;;;;;;;5073733;28;20385;-80
2022/07/06 09:08:19;;;;;;;0.10;0.10;;;;;;;;;;5073824;28;20393;-83
2022/07/06 09:10:45;;;;;;;0.10;0.10;;;;;;;;;;5074835;28;20542;-81
2022/07/06 09:13:11;;;;;;;0.15;0.15;;;;;;;;;;5072479;28;20036;-82
2022/07/06 09:15:41;;;;;;;0.20;0.20;;;;;;;;;;5073342;28;20465;-81
2022/07/06 09:18:07;;;;;;;0.10;0.10;;;;;;;;;;5071542;28;20506;-81
2022/07/06 09:20:34;;;;;;;0.10;0.10;;;;;;;;;;5073335;28;20017;-82
2022/07/06 09:23:01;;;;;;;0.10;0.10;;;;;;;;;;5072731;28;20403;-86
2022/07/06 09:25:27;;;;;;;0.10;0.10;;;;;;;;;;5073239;28;20028;-85
2022/07/06 09:27:54;;;;;;;0.10;0.10;;;;;;;;;;5072292;28;20046;-84
2022/07/06 09:30:21;;;;;;;0.10;0.10;;;;;;;;;;5062321;28;20029;-87
2022/07/06 09:32:51;;;;;;;0.10;0.10;;;;;;;;;;5062368;28;20036;-86
2022/07/06 09:35:22;;;;;;;0.10;0.10;;;;;;;;;;5072698;28;20564;-83
2022/07/06 09:37:48;;;;;;;0.10;0.10;;;;;;;;;;5073630;28;20366;-84
2022/07/06 09:40:20;;;;;;;0.10;0.10;;;;;;;;;;5073209;28;20472;-83
2022/07/06 09:42:46;;;;;;;0.10;0.10;;;;;;;;;;5073029;28;20025;-83
2022/07/06 09:45:12;;;;;;;0.10;0.10;;;;;;;;;;5072531;28;20750;-82
2022/07/06 09:47:40;;;;;;;0.10;0.10;;;;;;;;;;5072504;28;20483;-81
2022/07/06 09:50:06;;;;;;;0.10;0.10;;;;;;;;;;5072827;28;20036;-81
2022/07/06 09:52:36;;;;;;;0.10;0.10;;;;;;;;;;5072574;28;20045;-81
2022/07/06 09:55:06;;;;;;;0.10;0.10;;;;;;;;;;5072331;28;20041;-83
2022/07/06 09:57:32;;;;;;;0.10;0.10;;;;;;;;;;5072942;28;20021;-82
2022/07/06 09:59:58;;;;;;;0.10;0.10;;;;;;;;;;5071284;28;20443;-82
2022/07/06 10:02:26;;;;;;;0.17;0.17;;;;;;;;;;5071312;28;20025;-83
2022/07/06 10:04:53;;;;;;;0.10;0.10;;;;;;;;;;5071104;28;20031;-81
2022/07/06 10:07:21;;;;;;;0.10;0.10;;;;;;;;;;5071319;28;20527;-81
2022/07/06 10:09:47;;;;;;;0.10;0.10;;;;;;;;;;5072075;28;20427;-80
2022/07/06 10:12:14;;;;;;;0.10;0.10;;;;;;;;;;5072321;28;20078;-81
2022/07/06 10:14:41;;;;;;;0.10;0.10;;;;;;;;;;5071315;28;20044;-81
2022/07/06 10:17:07;;;;;;;0.10;0.10;;;;;;;;;;5071904;28;20070;-80
2022/07/06 10:19:33;;;;;;;0.10;0.10;;;;;;;;;;5071858;28;20494;-80
2022/07/06 10:22:01;;;;;;;0.20;0.20;;;;;;;;;;5072226;28;20073;-82
2022/07/06 10:24:27;;;;;;;0.10;0.10;;;;;;;;;;5070517;28;20488;-85
2022/07/06 10:26:54;;;;;;;0.10;0.10;;;;;;;;;;5070913;28;20032;-85
2022/07/06 10:29:20;;;;;;;0.10;0.10;;;;;;;;;;5072123;28;20035;-84
2022/07/06 10:31:48;;;;;;;0.10;0.10;;;;;;;;;;5071685;28;20051;-84
2022/07/06 10:34:15;;;;;;;0.10;0.10;;;;;;;;;;5070466;28;20033;-83
2022/07/06 10:36:43;;;;;;;0.10;0.10;;;;;;;;;;5071643;28;20058;-82
2022/07/06 10:41:55;;;;;;;0.10;0.10;;;;;;;;;;5071954;28;20028;-83
2022/07/06 10:44:22;;;;;;;0.10;0.10;;;;;;;;;;5070404;28;20039;-82
2022/07/06 10:46:55;;;;;;;0.10;0.10;;;;;;;;;;5071471;28;20117;-82
2022/07/06 10:49:22;;;;;;;0.98;0.57;;;;;;;;;;5071866;28;20099;-82
2022/07/06 10:51:49;;;;;;;0.10;0.10;;;;;;;;;;5071792;28;20537;-82
2022/07/06 10:54:15;;;;;;;0.10;0.10;;;;;;;;;;5070992;28;20029;-81
2022/07/06 10:56:51;;;;;;;0.10;0.10;;;;;;;;;;5071272;28;20031;-82
2022/07/06 10:59:21;;;;;;;0.10;0.10;;;;;;;;;;5071773;28;20473;-82
2022/07/06 11:02:05;;;;;;;0.10;0.10;;;;;;;;;;5071431;28;20031;-83
2022/07/06 11:04:32;;;;;;;0.10;0.10;;;;;;;;;;5069849;28;20385;-81
2022/07/06 11:07:07;;;;;;;0.10;0.10;;;;;;;;;;5068890;28;20021;-83
2022/07/06 11:09:33;;;;;;;0.10;0.10;;;;;;;;;;5069190;28;20123;-82
2022/07/06 11:12:12;;;;;;;0.10;0.10;;;;;;;;;;5069307;28;20028;-81
2022/07/06 11:14:38;;;;;;;0.10;0.10;;;;;;;;;;5048180;28;20060;-81
2022/07/06 11:17:05;;;;;;;0.10;0.10;;;;;;;;;;5049403;28;20021;-81
2022/07/06 11:19:31;;;;;;;0.10;0.10;;;;;;;;;;5049781;28;20028;-81
2022/07/06 11:21:59;;;;;;;2.78;2.60;;;;;;;;;;5049721;28;20025;-81
2022/07/06 11:24:29;;;;;;;0.10;0.10;;;;;;;;;;5047062;28;20444;-81
2022/07/06 11:26:56;;;;;;;0.10;0.10;;;;;;;;;;5047743;28;20031;-82
2022/07/06 11:29:24;;;;;;;0.10;0.10;;;;;;;;;;5048753;28;20025;-83
2022/07/06 11:31:55;;;;;;;0.10;0.10;;;;;;;;;;5050993;28;20024;-85
2022/07/06 11:34:40;;;;;;;0.10;0.10;;;;;;;;;;5051379;28;20040;-83
2022/07/06 11:37:08;;;;;;;0.10;0.10;;;;;;;;;;5054842;28;20029;-84
2022/07/06 11:39:36;;;;;;;0.10;0.10;;;;;;;;;;5050088;28;20125;-81
2022/07/06 11:42:03;;;;;;;0.10;0.10;;;;;;;;;;5049978;28;20469;-80
2022/07/06 11:44:30;;;;;;;0.10;0.10;;;;;;;;;;5050624;28;20048;-82
2022/07/06 11:46:57;;;;;;;0.10;0.10;;;;;;;;;;5049738;28;20029;-82
2022/07/06 11:49:23;;;;;;;0.10;0.10;;;;;;;;;;5049800;28;20057;-82
2022/07/06 11:51:49;;;;;;;0.10;0.10;;;;;;;;;;5064622;28;20036;-82
2022/07/06 11:54:16;;;;;;;0.10;0.10;;;;;;;;;;5068657;28;20089;-82
2022/07/06 11:56:54;;;;;;;0.10;0.10;;;;;;;;;;5051545;28;20040;-81
2022/07/06 11:59:25;;;;;;;0.10;0.10;;;;;;;;;;5051146;28;20082;-82
2022/07/06 12:02:18;;;;;;;0.10;0.10;;;;;;;;;;5051475;28;20062;-81
2022/07/06 12:04:45;;;;;;;0.10;0.10;;;;;;;;;;5048918;28;20086;-80
2022/07/06 12:07:15;;;;;;;0.10;0.10;;;;;;;;;;5050732;28;20155;-79
2022/07/06 12:09:42;;;;;;;0.10;0.10;;;;;;;;;;5049064;28;20421;-80
2022/07/06 12:12:09;;;;;;;0.10;0.10;;;;;;;;;;5063120;28;20463;-81
2022/07/06 12:14:36;;;;;;;0.10;0.10;;;;;;;;;;5070409;28;20037;-80
2022/07/06 12:17:03;;;;;;;0.10;0.10;;;;;;;;;;5070050;28;20020;-80
2022/07/06 12:19:30;;;;;;;0.10;0.10;;;;;;;;;;5051387;28;20393;-81
2022/07/06 12:21:56;;;;;;;0.10;0.10;;;;;;;;;;5064702;28;20503;-80
2022/07/06 12:24:26;;;;;;;0.10;0.10;;;;;;;;;;5074281;28;20036;-79
2022/07/06 12:26:53;;;;;;;0.10;0.10;;;;;;;;;;5074414;28;20024;-80
2022/07/06 12:29:19;;;;;;;0.10;0.10;;;;;;;;;;5074503;28;20021;-81
2022/07/06 12:31:48;;;;;;;0.10;0.10;;;;;;;;;;5073364;28;20035;-83
2022/07/06 12:34:16;;;;;;;0.10;0.10;;;;;;;;;;5072704;28;20029;-81
2022/07/06 12:36:47;;;;;;;0.10;0.10;;;;;;;;;;5073879;28;20025;-81
2022/07/06 12:39:14;;;;;;;0.15;0.15;;;;;;;;;;5074087;28;20028;-81
2022/07/06 12:41:48;;;;;;;0.10;0.10;;;;;;;;;;5071583;28;20029;-81
2022/07/06 12:44:16;;;;;;;0.10;0.10;;;;;;;;;;5072548;28;20441;-81
2022/07/06 12:46:43;;;;;;;0.10;0.10;;;;;;;;;;5075002;28;20116;-84
2022/07/06 12:49:20;;;;;;;0.10;0.10;;;;;;;;;;5073349;28;20115;-80
2022/07/06 12:51:55;;;;;;;0.10;0.10;;;;;;;;;;5072371;28;20128;-79
2022/07/06 12:54:21;;;;;;;0.05;0.05;;;;;;;;;;5074014;28;20403;-79
2022/07/06 12:57:06;;;;;;;0.08;0.08;;;;;;;;;;5073375;28;20070;-80
2022/07/06 12:59:33;;;;;;;0.10;0.10;;;;;;;;;;5072389;28;20382;-82
2022/07/06 13:01:59;;;;;;;0.10;0.10;;;;;;;;;;5073647;28;20027;-79
2022/07/06 13:04:31;;;;;;;0.20;0.20;;;;;;;;;;5073427;28;20439;-80
2022/07/06 13:06:57;;;;;;;0.10;0.10;;;;;;;;;;5072344;28;20035;-79
2022/07/06 13:09:23;;;;;;;0.10;0.10;;;;;;;;;;5072856;28;20051;-79
2022/07/06 13:11:49;;;;;;;0.10;0.10;;;;;;;;;;5073650;28;20063;-81
2022/07/06 13:14:16;;;;;;;0.10;0.10;;;;;;;;;;5073163;28;20028;-81
2022/07/06 13:16:43;;;;;;;0.10;0.10;;;;;;;;;;5071832;28;20151;-80
2022/07/06 13:19:09;;;;;;;0.10;0.10;;;;;;;;;;5070356;28;20052;-80
2022/07/06 13:21:35;;;;;;;0.10;0.10;;;;;;;;;;5072993;28;20029;-81
2022/07/06 13:24:01;;;;;;;0.10;0.10;;;;;;;;;;5071876;28;20400;-80
2022/07/06 13:26:27;;;;;;;0.10;0.10;;;;;;;;;;5071265;28;20119;-80
2022/07/06 13:28:53;;;;;;;0.10;0.10;;;;;;;;;;5073132;28;20028;-80
2022/07/06 13:31:19;;;;;;;0.10;0.10;;;;;;;;;;5072460;28;20020;-82
2022/07/06 13:33:45;;;;;;;0.10;0.10;;;;;;;;;;5072740;28;20064;-82
2022/07/06 13:36:11;;;;;;;0.10;0.10;;;;;;;;;;5071681;28;20396;-81
2022/07/06 13:38:37;;;;;;;0.10;0.10;;;;;;;;;;5072633;28;20028;-80
2022/07/06 13:41:03;;;;;;;0.10;0.10;;;;;;;;;;5071155;28;20025;-82
2022/07/06 13:43:35;;;;;;;0.10;0.10;;;;;;;;;;5071334;28;20511;-83
2022/07/06 13:46:05;;;;;;;0.10;0.10;;;;;;;;;;5064029;28;20108;-82
2022/07/06 13:48:32;;;;;;;0.10;0.10;;;;;;;;;;5052541;28;20126;-82
2022/07/06 13:50:58;;;;;;;0.10;0.10;;;;;;;;;;5051251;28;20086;-83
2022/07/06 13:53:24;;;;;;;0.20;0.20;;;;;;;;;;5052501;28;20032;-84
2022/07/06 13:55:50;;;;;;;0.10;0.10;;;;;;;;;;5051353;28;20037;-81
2022/07/06 13:58:16;;;;;;;0.10;0.10;;;;;;;;;;5052789;28;20387;-82
2022/07/06 14:00:42;;;;;;;0.10;0.10;;;;;;;;;;5050649;28;20037;-83
2022/07/06 14:03:08;;;;;;;0.10;0.10;;;;;;;;;;5066850;28;20017;-82
2022/07/06 14:05:34;;;;;;;0.20;0.20;;;;;;;;;;5051902;28;20029;-81
2022/07/06 14:08:00;;;;;;;0.10;0.10;;;;;;;;;;5051877;28;20075;-81
2022/07/06 14:10:26;;;;;;;0.10;0.10;;;;;;;;;;5051970;28;20033;-81
2022/07/06 14:12:52;;;;;;;0.10;0.10;;;;;;;;;;5050631;28;20029;-82
2022/07/06 14:15:19;;;;;;;0.10;0.10;;;;;;;;;;5052291;28;20036;-81
2022/07/06 14:17:45;;;;;;;0.10;0.10;;;;;;;;;;5051710;28;20025;-82
2022/07/06 14:20:11;;;;;;;0.10;0.10;;;;;;;;;;5051757;28;20504;-82
2022/07/06 14:22:37;;;;;;;0.10;0.10;;;;;;;;;;5054347;28;20099;-80
2022/07/06 14:25:05;;;;;;;0.10;0.10;;;;;;;;;;5072002;28;20024;-79
2022/07/06 14:27:34;;;;;;;0.10;0.10;;;;;;;;;;5059036;28;20024;-83
2022/07/06 14:30:00;;;;;;;0.10;0.10;;;;;;;;;;5051953;28;20025;-80
2022/07/06 14:32:26;;;;;;;0.10;0.10;;;;;;;;;;5051737;28;20033;-80
2022/07/06 14:34:52;;;;;;;0.10;0.10;;;;;;;;;;5050500;28;20462;-79
2022/07/06 14:37:18;;;;;;;0.10;0.10;;;;;;;;;;5052083;28;20029;-79
2022/07/06 14:39:46;;;;;;;0.10;0.10;;;;;;;;;;5051334;28;20455;-80
2022/07/06 14:42:12;;;;;;;0.20;0.20;;;;;;;;;;5051423;28;20473;-80
2022/07/06 14:44:38;;;;;;;0.10;0.10;;;;;;;;;;5050844;28;20515;-81
2022/07/06 14:47:04;;;;;;;0.10;0.10;;;;;;;;;;5050297;28;20112;-80